createdAt,value
2018-11-03T00:02:24.357Z,21.00
2018-11-03T00:04:53.298Z,14.17
2018-11-03T00:07:22.107Z,13.60
2018-11-03T00:09:50.857Z,17.33
2018-11-03T00:12:19.762Z,32.27
2018-11-03T00:14:48.537Z,10.90
2018-11-03T00:17:17.321Z,15.00
2018-11-03T00:19:46.058Z,12.13
2018-11-03T00:22:14.765Z,10.00
2018-11-03T00:24:43.460Z,10.50
2018-11-03T00:27:12.099Z,13.07
2018-11-03T00:29:41.098Z,9.23
2018-11-03T00:32:09.845Z,7.33
2018-11-03T00:34:38.718Z,12.30
2018-11-03T00:37:07.418Z,15.40
2018-11-03T00:39:36.391Z,15.70
2018-11-03T00:42:05.627Z,11.63
2018-11-03T00:44:34.621Z,11.53
2018-11-03T00:47:03.233Z,9.40
2018-11-03T00:49:32.025Z,20.67
2018-11-03T00:52:00.850Z,9.10
2018-11-03T00:54:29.677Z,11.90
2018-11-03T00:56:58.537Z,9.10
2018-11-03T00:59:27.333Z,12.10
2018-11-03T01:01:56.122Z,11.00
2018-11-03T01:04:25.081Z,16.10
2018-11-03T01:06:53.829Z,13.87
2018-11-03T01:09:22.631Z,12.50
2018-11-03T01:11:51.393Z,9.30
2018-11-03T01:14:20.285Z,9.57
2018-11-03T01:16:48.986Z,11.70
2018-11-03T01:19:17.846Z,11.60
2018-11-03T01:21:46.548Z,10.37
2018-11-03T01:24:15.248Z,10.60
2018-11-03T01:26:44.242Z,11.47
2018-11-03T01:29:13.450Z,12.17
2018-11-03T01:31:42.109Z,10.10
2018-11-03T01:34:10.992Z,11.30
2018-11-03T01:36:39.699Z,13.87
2018-11-03T01:39:10.646Z,13.20
2018-11-03T01:41:39.637Z,9.50
2018-11-03T01:44:08.976Z,12.43
2018-11-03T01:46:37.682Z,11.37
2018-11-03T01:49:06.515Z,13.33
2018-11-03T01:51:35.280Z,10.77
2018-11-03T01:54:03.991Z,23.13
2018-11-03T01:56:32.814Z,11.37
2018-11-03T01:59:01.500Z,10.83
2018-11-03T02:01:30.230Z,9.17
2018-11-03T02:03:58.962Z,15.20
2018-11-03T02:06:27.706Z,9.83
2018-11-03T02:08:56.429Z,11.70
2018-11-03T02:11:25.299Z,8.77
2018-11-03T02:13:53.974Z,8.50
2018-11-03T02:16:22.783Z,16.00
2018-11-03T02:18:51.488Z,9.43
2018-11-03T02:21:20.225Z,14.03
2018-11-03T02:23:48.901Z,10.37
2018-11-03T02:26:17.630Z,13.40
2018-11-03T02:28:46.493Z,11.90
2018-11-03T02:31:15.175Z,8.97
2018-11-03T02:33:43.849Z,10.40
2018-11-03T02:36:12.547Z,11.10
2018-11-03T02:38:41.213Z,10.73
2018-11-03T02:41:10.089Z,11.00
2018-11-03T02:43:38.921Z,10.80
2018-11-03T02:46:07.621Z,9.73
2018-11-03T02:48:36.309Z,14.40
2018-11-03T02:51:05.253Z,11.73
2018-11-03T02:53:33.973Z,16.43
2018-11-03T02:56:02.661Z,13.37
2018-11-03T02:58:31.490Z,14.93
2018-11-03T03:01:00.296Z,10.27
2018-11-03T03:03:28.941Z,8.80
2018-11-03T03:05:57.614Z,9.60
2018-11-03T03:08:26.434Z,11.27
2018-11-03T03:10:55.397Z,11.07
2018-11-03T03:13:24.100Z,9.97
2018-11-03T03:15:52.806Z,11.03
2018-11-03T03:18:21.642Z,13.00
2018-11-03T03:20:50.297Z,9.30
2018-11-03T03:23:19.067Z,9.17
2018-11-03T03:25:48.566Z,9.93
2018-11-03T03:28:17.302Z,11.30
2018-11-03T03:30:46.090Z,22.47
2018-11-03T03:33:14.898Z,8.40
2018-11-03T03:35:43.642Z,10.30
2018-11-03T03:38:12.282Z,9.97
2018-11-03T03:40:41.010Z,10.37
2018-11-03T03:43:09.750Z,10.63
2018-11-03T03:45:38.465Z,8.60
2018-11-03T03:48:07.266Z,12.37
2018-11-03T03:50:35.937Z,11.23
2018-11-03T03:53:04.873Z,11.47
2018-11-03T03:55:33.570Z,7.73
2018-11-03T03:58:02.317Z,11.87
2018-11-03T04:00:31.186Z,10.33
2018-11-03T04:03:00.027Z,11.20
2018-11-03T04:05:28.767Z,11.67
2018-11-03T04:07:57.613Z,11.57
2018-11-03T04:10:26.389Z,8.43
2018-11-03T04:12:55.121Z,7.23
2018-11-03T04:15:25.922Z,7.93
2018-11-03T04:17:54.751Z,12.40
2018-11-03T04:20:23.533Z,11.13
2018-11-03T04:22:52.281Z,6.53
2018-11-03T04:25:21.123Z,10.23
2018-11-03T04:27:49.782Z,10.33
2018-11-03T04:30:18.729Z,10.77
2018-11-03T04:32:47.721Z,8.83
2018-11-03T04:35:16.607Z,11.07
2018-11-03T04:37:45.407Z,10.03
2018-11-03T04:40:14.178Z,12.53
2018-11-03T04:42:42.924Z,10.07
2018-11-03T04:45:12.350Z,9.47
2018-11-03T04:47:41.044Z,10.33
2018-11-03T04:50:10.593Z,6.63
2018-11-03T04:52:39.681Z,11.90
2018-11-03T04:55:09.339Z,29.27
2018-11-03T04:57:37.964Z,13.80
2018-11-03T05:00:07.798Z,10.57
2018-11-03T05:02:36.539Z,8.53
2018-11-03T05:05:05.533Z,8.83
2018-11-03T05:07:34.238Z,6.47
2018-11-03T05:10:02.974Z,7.00
2018-11-03T05:12:31.617Z,7.90
2018-11-03T05:15:00.452Z,6.10
2018-11-03T05:17:29.186Z,13.73
2018-11-03T05:19:57.911Z,10.63
2018-11-03T05:22:26.586Z,7.30
2018-11-03T05:24:55.365Z,8.13
2018-11-03T05:27:24.066Z,8.73
2018-11-03T05:29:52.874Z,8.70
2018-11-03T05:32:21.574Z,11.70
2018-11-03T05:34:50.346Z,8.60
2018-11-03T05:37:19.110Z,7.37
2018-11-03T05:39:47.897Z,6.33
2018-11-03T05:42:16.647Z,7.27
2018-11-03T05:44:45.407Z,8.40
2018-11-03T05:47:14.216Z,7.40
2018-11-03T05:49:43.061Z,6.77
2018-11-03T05:52:11.737Z,7.70
2018-11-03T05:54:40.546Z,7.10
2018-11-03T05:57:09.399Z,11.23
2018-11-03T05:59:38.213Z,8.37
2018-11-03T06:02:06.976Z,12.10
2018-11-03T06:04:35.769Z,6.03
2018-11-03T06:07:04.477Z,9.10
2018-11-03T06:09:33.150Z,9.80
2018-11-03T06:12:01.791Z,5.70
2018-11-03T06:14:30.511Z,8.70
2018-11-03T06:16:59.337Z,10.00
2018-11-03T06:19:28.069Z,6.37
2018-11-03T06:21:56.794Z,5.17
2018-11-03T06:24:25.937Z,9.67
2018-11-03T06:26:54.590Z,8.93
2018-11-03T06:29:23.545Z,9.47
2018-11-03T06:31:52.334Z,8.57
2018-11-03T06:34:21.038Z,5.57
2018-11-03T06:36:49.924Z,6.40
2018-11-03T06:39:18.675Z,11.07
2018-11-03T06:41:47.325Z,6.00
2018-11-03T06:44:16.107Z,7.43
2018-11-03T06:46:44.922Z,9.07
2018-11-03T06:49:18.878Z,10.30
2018-11-03T06:51:47.640Z,9.53
2018-11-03T06:54:16.495Z,9.30
2018-11-03T06:56:45.390Z,10.30
2018-11-03T06:59:14.618Z,6.87
2018-11-03T07:01:43.417Z,6.83
2018-11-03T07:04:12.162Z,9.80
2018-11-03T07:06:40.851Z,6.57
2018-11-03T07:09:11.286Z,6.67
2018-11-03T07:11:40.693Z,5.30
2018-11-03T07:14:10.230Z,8.03
2018-11-03T07:16:39.082Z,6.60
2018-11-03T07:19:07.848Z,7.70
2018-11-03T07:21:36.590Z,7.13
2018-11-03T07:24:05.278Z,7.13
2018-11-03T07:26:34.026Z,8.50
2018-11-03T07:29:02.817Z,7.70
2018-11-03T07:31:31.521Z,15.67
2018-11-03T07:34:00.328Z,8.03
2018-11-03T07:36:29.062Z,10.00
2018-11-03T07:38:57.767Z,6.07
2018-11-03T07:41:26.570Z,6.80
2018-11-03T07:43:55.230Z,8.07
2018-11-03T07:46:24.364Z,8.77
2018-11-03T07:48:53.265Z,7.47
2018-11-03T07:51:21.942Z,8.60
2018-11-03T07:53:50.779Z,8.90
2018-11-03T07:56:19.645Z,14.57
2018-11-03T07:58:48.354Z,7.47
2018-11-03T08:01:17.138Z,7.90
2018-11-03T08:03:48.785Z,7.53
2018-11-03T08:06:17.649Z,15.50
2018-11-03T08:08:46.456Z,8.90
2018-11-03T08:11:15.274Z,10.13
2018-11-03T08:13:44.086Z,8.00
2018-11-03T08:16:12.790Z,10.13
2018-11-03T08:18:41.697Z,13.50
2018-11-03T08:21:10.354Z,7.30
2018-11-03T08:23:39.258Z,8.67
2018-11-03T08:26:07.998Z,7.97
2018-11-03T08:28:36.908Z,7.83
2018-11-03T08:31:05.768Z,8.63
2018-11-03T08:33:34.425Z,7.67
2018-11-03T08:36:03.181Z,6.37
2018-11-03T08:38:32.094Z,9.73
2018-11-03T08:41:00.750Z,11.67
2018-11-03T08:43:29.569Z,10.87
2018-11-03T08:45:58.386Z,7.83
2018-11-03T08:48:27.241Z,11.63
2018-11-03T08:50:56.082Z,15.17
2018-11-03T08:53:24.950Z,10.37
2018-11-03T08:55:53.639Z,9.53
2018-11-03T08:58:22.741Z,13.70
2018-11-03T09:00:51.477Z,10.30
2018-11-03T09:03:20.169Z,9.57
2018-11-03T09:05:49.034Z,12.70
2018-11-03T09:08:17.738Z,8.93
2018-11-03T09:10:46.530Z,14.97
2018-11-03T09:13:15.397Z,7.77
2018-11-03T09:15:44.161Z,13.13
2018-11-03T09:18:13.017Z,8.30
2018-11-03T09:20:41.758Z,9.33
2018-11-03T09:23:10.545Z,9.07
2018-11-03T09:25:39.350Z,13.90
2018-11-03T09:28:08.993Z,7.83
2018-11-03T09:30:37.870Z,8.13
2018-11-03T09:33:06.782Z,10.30
2018-11-03T09:35:35.557Z,9.30
2018-11-03T09:38:04.413Z,10.60
2018-11-03T09:40:33.202Z,10.57
2018-11-03T09:43:02.041Z,20.33
2018-11-03T09:45:30.945Z,7.60
2018-11-03T09:47:59.739Z,9.93
2018-11-03T09:50:28.556Z,10.30
2018-11-03T09:52:57.289Z,10.73
2018-11-03T09:55:25.969Z,8.83
2018-11-03T09:57:54.837Z,10.33
2018-11-03T10:00:23.609Z,10.23
2018-11-03T10:02:52.328Z,10.20
2018-11-03T10:05:21.130Z,10.07
2018-11-03T10:07:50.089Z,8.93
2018-11-03T10:10:20.012Z,8.20
2018-11-03T10:12:48.880Z,7.30
2018-11-03T10:15:18.861Z,9.17
2018-11-03T10:17:47.897Z,8.90
2018-11-03T10:20:16.748Z,12.70
2018-11-03T10:22:45.636Z,10.03
2018-11-03T10:25:17.049Z,9.00
2018-11-03T10:27:46.216Z,9.60
2018-11-03T10:30:16.039Z,14.80
2018-11-03T10:32:45.240Z,8.63
2018-11-03T10:35:14.622Z,8.30
2018-11-03T10:37:43.777Z,11.73
2018-11-03T10:40:14.545Z,9.20
2018-11-03T10:42:43.671Z,7.10
2018-11-03T10:45:13.875Z,10.20
2018-11-03T10:47:42.901Z,8.87
2018-11-03T10:50:14.211Z,7.80
2018-11-03T10:52:43.942Z,11.37
2018-11-03T10:55:14.141Z,9.97
2018-11-03T10:57:43.056Z,8.00
2018-11-03T11:00:19.195Z,7.37
2018-11-03T11:02:53.197Z,9.67
2018-11-03T11:05:27.047Z,14.13
2018-11-03T11:08:00.982Z,9.23
2018-11-03T11:10:34.964Z,9.20
2018-11-03T11:13:06.917Z,14.23
2018-11-03T11:15:35.777Z,20.40
2018-11-03T11:18:04.602Z,8.77
2018-11-03T11:20:33.603Z,10.90
2018-11-03T11:23:02.376Z,9.70
2018-11-03T11:25:31.260Z,10.73
2018-11-03T11:28:00.075Z,12.23
2018-11-03T11:30:33.025Z,11.70
2018-11-03T11:33:02.009Z,10.20
2018-11-03T11:35:30.679Z,7.00
2018-11-03T11:37:59.741Z,7.20
2018-11-03T11:40:28.695Z,6.47
2018-11-03T11:42:57.963Z,10.07
2018-11-03T11:45:26.736Z,11.30
2018-11-03T11:47:55.641Z,9.67
2018-11-03T11:50:24.465Z,7.13
2018-11-03T11:52:53.175Z,9.63
2018-11-03T11:55:21.913Z,7.60
2018-11-03T11:57:51.493Z,10.63
2018-11-03T12:00:21.211Z,8.03
2018-11-03T12:02:49.923Z,8.37
2018-11-03T12:05:19.128Z,9.73
2018-11-03T12:07:47.983Z,9.67
2018-11-03T12:10:17.117Z,7.63
2018-11-03T12:12:45.722Z,7.70
2018-11-03T12:15:14.659Z,10.13
2018-11-03T12:17:43.377Z,7.30
2018-11-03T12:20:12.390Z,7.50
2018-11-03T12:22:41.293Z,10.27
2018-11-03T12:25:11.407Z,7.77
2018-11-03T12:27:40.638Z,11.60
2018-11-03T12:30:12.729Z,8.70
2018-11-03T12:32:42.316Z,13.50
2018-11-03T12:35:11.903Z,8.70
2018-11-03T12:37:41.209Z,7.20
2018-11-03T12:40:13.981Z,7.10
2018-11-03T12:42:42.774Z,11.40
2018-11-03T12:45:12.545Z,7.53
2018-11-03T12:47:41.949Z,7.50
2018-11-03T12:50:13.858Z,10.10
2018-11-03T12:52:43.037Z,14.57
2018-11-03T12:55:12.245Z,10.63
2018-11-03T12:57:42.149Z,7.20
2018-11-03T13:00:13.006Z,7.00
2018-11-03T13:02:42.665Z,8.20
2018-11-03T13:05:11.456Z,8.40
2018-11-03T13:07:41.230Z,10.03
2018-11-03T13:10:10.886Z,8.37
2018-11-03T13:12:40.460Z,8.77
2018-11-03T13:15:10.638Z,6.60
2018-11-03T13:17:39.871Z,7.37
2018-11-03T13:20:11.147Z,8.93
2018-11-03T13:22:41.523Z,8.87
2018-11-03T13:25:11.954Z,12.53
2018-11-03T13:27:41.483Z,12.27
2018-11-03T13:30:12.403Z,10.83
2018-11-03T13:32:41.189Z,8.73
2018-11-03T13:35:11.356Z,8.70
2018-11-03T13:37:40.317Z,9.50
2018-11-03T13:40:10.308Z,8.30
2018-11-03T13:42:39.058Z,10.53
2018-11-03T13:45:08.490Z,7.03
2018-11-03T13:47:38.384Z,11.20
2018-11-03T13:50:11.488Z,8.40
2018-11-03T13:52:41.418Z,11.43
2018-11-03T13:55:10.758Z,9.77
2018-11-03T13:57:40.122Z,11.00
2018-11-03T14:00:11.328Z,12.33
2018-11-03T14:02:40.789Z,10.83
2018-11-03T14:05:10.341Z,4.20
2018-11-03T14:07:39.050Z,10.77
2018-11-03T14:10:09.836Z,10.80
2018-11-03T14:12:38.684Z,8.30
2018-11-03T14:15:08.748Z,12.93
2018-11-03T14:17:37.566Z,12.77
2018-11-03T14:20:07.629Z,10.73
2018-11-03T14:22:36.403Z,6.53
2018-11-03T14:25:05.893Z,13.17
2018-11-03T14:27:34.570Z,9.53
2018-11-03T14:30:03.301Z,9.30
2018-11-03T14:32:32.126Z,15.20
2018-11-03T14:35:00.922Z,10.10
2018-11-03T14:37:29.606Z,12.27
2018-11-03T14:39:58.591Z,8.03
2018-11-03T14:42:27.549Z,20.37
2018-11-03T14:44:56.507Z,7.20
2018-11-03T14:47:25.306Z,9.87
2018-11-03T14:49:54.085Z,11.70
2018-11-03T14:52:23.018Z,14.20
2018-11-03T14:54:52.143Z,8.03
2018-11-03T14:57:21.732Z,10.27
2018-11-03T14:59:50.545Z,8.53
2018-11-03T15:02:19.261Z,10.77
2018-11-03T15:04:47.938Z,10.30
2018-11-03T15:07:16.643Z,9.67
2018-11-03T15:09:45.297Z,11.00
2018-11-03T15:12:13.992Z,13.37
2018-11-03T15:14:42.836Z,9.70
2018-11-03T15:17:11.485Z,11.20
2018-11-03T15:19:40.193Z,13.20
2018-11-03T15:22:08.990Z,14.40
2018-11-03T15:24:37.679Z,11.07
2018-11-03T15:27:08.170Z,10.10
2018-11-03T15:29:36.994Z,10.97
2018-11-03T15:32:05.880Z,9.50
2018-11-03T15:34:34.750Z,15.00
2018-11-03T15:37:03.373Z,13.10
2018-11-03T15:39:32.026Z,11.30
2018-11-03T15:42:00.975Z,13.57
2018-11-03T15:44:29.757Z,11.40
2018-11-03T15:46:58.573Z,9.40
2018-11-03T15:49:27.260Z,13.77
2018-11-03T15:51:55.974Z,10.67
2018-11-03T15:54:24.689Z,11.33
2018-11-03T15:56:53.424Z,14.17
2018-11-03T15:59:22.185Z,11.27
2018-11-03T16:01:51.042Z,8.30
2018-11-03T16:04:19.810Z,13.07
2018-11-03T16:06:48.498Z,13.13
2018-11-03T16:09:17.174Z,13.07
2018-11-03T16:11:45.818Z,14.30
2018-11-03T16:14:14.558Z,13.50
2018-11-03T16:16:43.238Z,16.53
2018-11-03T16:19:12.133Z,12.17
2018-11-03T16:21:40.807Z,17.40
2018-11-03T16:24:09.637Z,10.00
2018-11-03T16:26:38.441Z,11.17
2018-11-03T16:29:07.143Z,22.53
2018-11-03T16:31:35.909Z,15.50
2018-11-03T16:34:04.844Z,16.00
2018-11-03T16:36:33.495Z,14.20
2018-11-03T16:39:02.249Z,17.97
2018-11-03T16:41:30.928Z,19.63
2018-11-03T16:43:59.821Z,15.23
2018-11-03T16:46:28.477Z,12.00
2018-11-03T16:48:57.272Z,13.00
2018-11-03T16:51:26.078Z,14.30
2018-11-03T16:53:54.750Z,14.67
2018-11-03T16:56:23.487Z,17.60
2018-11-03T16:58:52.177Z,17.03
2018-11-03T17:01:20.989Z,16.57
2018-11-03T17:03:49.921Z,14.23
2018-11-03T17:06:18.695Z,23.20
2018-11-03T17:08:47.354Z,15.23
2018-11-03T17:11:16.138Z,17.13
2018-11-03T17:13:44.922Z,17.17
2018-11-03T17:16:14.141Z,26.33
2018-11-03T17:18:43.022Z,12.50
2018-11-03T17:21:11.738Z,16.70
2018-11-03T17:23:40.442Z,13.50
2018-11-03T17:26:09.280Z,14.23
2018-11-03T17:28:38.133Z,15.30
2018-11-03T17:31:06.969Z,14.00
2018-11-03T17:33:35.741Z,14.90
2018-11-03T17:36:04.578Z,13.43
2018-11-03T17:38:33.400Z,12.50
2018-11-03T17:41:02.156Z,14.40
2018-11-03T17:43:31.073Z,14.63
2018-11-03T17:45:59.862Z,16.93
2018-11-03T17:48:28.685Z,22.00
2018-11-03T17:50:57.402Z,16.13
2018-11-03T17:53:26.288Z,13.73
2018-11-03T17:55:55.037Z,16.03
2018-11-03T17:58:23.797Z,22.67
2018-11-03T18:00:52.478Z,10.63
2018-11-03T18:03:21.188Z,15.40
2018-11-03T18:05:50.121Z,16.03
2018-11-03T18:08:18.806Z,27.10
2018-11-03T18:10:47.522Z,16.77
2018-11-03T18:13:16.569Z,19.30
2018-11-03T18:15:45.222Z,15.90
2018-11-03T18:18:13.937Z,15.00
2018-11-03T18:20:42.642Z,14.33
2018-11-03T18:23:11.330Z,16.57
2018-11-03T18:25:40.058Z,17.73
2018-11-03T18:28:08.909Z,22.00
2018-11-03T18:30:37.680Z,13.60
2018-11-03T18:33:06.524Z,13.73
2018-11-03T18:35:35.601Z,24.50
2018-11-03T18:38:04.291Z,12.00
2018-11-03T18:40:33.133Z,14.70
2018-11-03T18:43:01.994Z,14.60
2018-11-03T18:45:30.635Z,15.23
2018-11-03T18:47:59.385Z,14.30
2018-11-03T18:50:28.026Z,12.63
2018-11-03T18:52:56.753Z,10.43
2018-11-03T18:55:25.458Z,16.07
2018-11-03T18:57:54.256Z,15.57
2018-11-03T19:00:23.258Z,18.63
2018-11-03T19:02:51.967Z,15.67
2018-11-03T19:05:20.713Z,14.13
2018-11-03T19:07:50.061Z,17.53
2018-11-03T19:10:18.723Z,13.70
2018-11-03T19:12:47.406Z,17.03
2018-11-03T19:15:16.231Z,16.97
2018-11-03T19:17:45.101Z,14.43
2018-11-03T19:20:15.121Z,16.90
2018-11-03T19:22:43.956Z,11.83
2018-11-03T19:25:13.942Z,13.73
2018-11-03T19:27:42.775Z,17.83
2018-11-03T19:30:12.777Z,14.00
2018-11-03T19:32:42.997Z,14.27
2018-11-03T19:35:11.917Z,14.73
2018-11-03T19:37:41.250Z,12.67
2018-11-03T19:40:11.737Z,13.07
2018-11-03T19:42:41.095Z,13.17
2018-11-03T19:45:10.670Z,15.47
2018-11-03T19:47:39.626Z,20.13
2018-11-03T19:50:09.309Z,14.40
2018-11-03T19:52:38.149Z,15.90
2018-11-03T19:55:06.973Z,17.27
2018-11-03T19:57:35.902Z,14.90
2018-11-03T20:00:05.790Z,14.17
2018-11-03T20:02:34.525Z,13.30
2018-11-03T20:05:03.165Z,16.63
2018-11-03T20:07:31.902Z,18.70
2018-11-03T20:10:00.708Z,20.17
2018-11-03T20:12:29.542Z,20.40
2018-11-03T20:14:58.436Z,23.00
2018-11-03T20:17:27.320Z,18.77
2018-11-03T20:19:56.103Z,16.80
2018-11-03T20:22:25.366Z,22.77
2018-11-03T20:24:54.047Z,19.63
2018-11-03T20:27:22.895Z,21.00
2018-11-03T20:29:51.600Z,20.80
2018-11-03T20:32:20.275Z,20.70
2018-11-03T20:34:48.916Z,20.23
2018-11-03T20:37:17.623Z,22.80
2018-11-03T20:39:46.358Z,25.10
2018-11-03T20:42:15.054Z,18.83
2018-11-03T20:44:43.862Z,23.47
2018-11-03T20:47:12.548Z,20.43
2018-11-03T20:49:41.315Z,21.60
2018-11-03T20:52:10.068Z,19.63
2018-11-03T20:54:38.833Z,23.80
2018-11-03T20:57:07.518Z,22.17
2018-11-03T20:59:36.285Z,22.33
2018-11-03T21:02:05.044Z,22.33
2018-11-03T21:04:33.847Z,20.13
2018-11-03T21:07:02.565Z,25.40
2018-11-03T21:09:31.318Z,22.67
2018-11-03T21:12:00.057Z,22.53
2018-11-03T21:14:28.726Z,18.80
2018-11-03T21:16:57.646Z,25.00
2018-11-03T21:19:26.391Z,21.70
2018-11-03T21:21:55.217Z,28.17
2018-11-03T21:24:23.959Z,25.47
2018-11-03T21:26:52.869Z,22.30
2018-11-03T21:29:21.662Z,24.07
2018-11-03T21:31:50.472Z,21.03
2018-11-03T21:34:19.193Z,26.93
2018-11-03T21:36:47.909Z,20.73
2018-11-03T21:39:16.685Z,24.77
2018-11-03T21:41:45.551Z,22.67
2018-11-03T21:44:14.287Z,27.40
2018-11-03T21:46:43.071Z,22.90
2018-11-03T21:49:11.703Z,26.07
2018-11-03T21:51:40.702Z,23.30
2018-11-03T21:54:09.650Z,22.67
2018-11-03T21:56:38.418Z,22.70
2018-11-03T21:59:07.262Z,28.50
2018-11-03T22:01:36.010Z,27.57
2018-11-03T22:04:04.820Z,22.73
2018-11-03T22:06:33.715Z,24.80
2018-11-03T22:09:02.562Z,29.30
2018-11-03T22:11:31.238Z,53.47
2018-11-03T22:14:00.062Z,29.53
2018-11-03T22:16:28.958Z,23.30
2018-11-03T22:18:57.674Z,26.93
2018-11-03T22:21:26.535Z,21.80
2018-11-03T22:23:55.278Z,23.83
2018-11-03T22:26:24.279Z,26.50
2018-11-03T22:28:53.090Z,30.23
2018-11-03T22:31:21.799Z,28.67
2018-11-03T22:33:50.501Z,36.70
2018-11-03T22:36:19.224Z,38.37
2018-11-03T22:38:48.124Z,40.33
2018-11-03T22:41:16.881Z,31.10
2018-11-03T22:43:45.557Z,47.90
2018-11-03T22:46:14.337Z,40.07
2018-11-03T22:48:43.131Z,51.93
2018-11-03T22:51:16.596Z,59.13
2018-11-03T22:53:46.659Z,43.00
2018-11-03T22:56:15.882Z,70.37
2018-11-03T22:58:44.533Z,30.53
2018-11-03T23:01:13.255Z,28.63
2018-11-03T23:03:42.003Z,35.67
2018-11-03T23:06:10.770Z,25.10
2018-11-03T23:08:39.493Z,23.57
2018-11-03T23:11:08.293Z,26.03
2018-11-03T23:13:36.968Z,53.63
2018-11-03T23:16:06.054Z,31.23
2018-11-03T23:18:34.738Z,28.63
2018-11-03T23:21:03.449Z,30.33
2018-11-03T23:23:32.097Z,30.20
2018-11-03T23:26:00.821Z,27.60
2018-11-03T23:28:29.722Z,30.43
2018-11-03T23:30:58.558Z,29.93
2018-11-03T23:33:27.270Z,31.57
2018-11-03T23:35:56.030Z,55.47
2018-11-03T23:38:24.906Z,35.33
2018-11-03T23:40:53.577Z,39.63
2018-11-03T23:43:22.262Z,56.23
2018-11-03T23:45:51.001Z,31.23
2018-11-03T23:48:19.853Z,29.37
2018-11-03T23:50:48.641Z,26.73
2018-11-03T23:53:17.292Z,27.90
2018-11-03T23:55:46.009Z,36.43
2018-11-03T23:58:14.656Z,26.07
